Time;durP1;ratioP1;P1;durP2;ratioP2;P2;SDS_P1;SDS_P2;PMS_P1;PMS_P2;Temp;Humidity;BMP_temperature;BMP_pressure;BME280_temperature;BME280_humidity;BME280_pressure;Samples;Min_cycle;Max_cycle;Signal;HPM_P1;HPM_P2
2022/01/29 00:01:21;;;;;;;19.92;7.35;;;6.80;99.90;;;;;;6276212;22;20016;-85
2022/01/29 00:03:47;;;;;;;20.60;8.75;;;6.80;99.90;;;;;;6275884;22;20103;-86
2022/01/29 00:06:14;;;;;;;25.73;7.47;;;6.80;99.90;;;;;;6275830;22;20027;-85
2022/01/29 00:08:55;;;;;;;21.38;8.18;;;6.80;99.90;;;;;;6276147;22;20028;-86
2022/01/29 00:11:27;;;;;;;15.80;6.70;;;6.80;99.90;;;;;;6275706;22;20052;-86
2022/01/29 00:13:52;;;;;;;22.88;7.20;;;6.80;99.90;;;;;;6275964;22;20023;-86
2022/01/29 00:16:30;;;;;;;20.17;7.78;;;6.80;99.90;;;;;;6275497;22;20371;-85
2022/01/29 00:18:56;;;;;;;15.18;7.88;;;6.90;99.90;;;;;;6275854;22;20443;-85
2022/01/29 00:21:22;;;;;;;21.05;8.15;;;6.90;99.90;;;;;;6275695;22;20031;-85
2022/01/29 00:27:42;;;;;;;19.92;7.75;;;6.90;99.90;;;;;;6258035;22;20019;-87
2022/01/29 00:33:42;;;;;;;15.80;6.88;;;7.00;99.90;;;;;;6207834;22;20046;-86
2022/01/29 00:36:07;;;;;;;23.35;8.15;;;6.90;99.90;;;;;;6276283;22;20434;-86
2022/01/29 00:38:42;;;;;;;16.63;7.40;;;6.90;99.90;;;;;;6275647;22;20027;-85
2022/01/29 00:41:08;;;;;;;20.77;7.60;;;7.00;99.90;;;;;;6275766;22;20012;-86
2022/01/29 00:43:34;;;;;;;21.95;7.78;;;7.00;99.90;;;;;;6275842;22;20084;-86
2022/01/29 00:45:59;;;;;;;21.23;7.85;;;7.00;99.90;;;;;;6277431;22;20010;-85
2022/01/29 00:48:25;;;;;;;20.95;7.25;;;7.00;99.90;;;;;;6277023;22;20450;-86
2022/01/29 00:51:03;;;;;;;18.73;7.13;;;7.10;99.90;;;;;;6275269;22;20446;-85
2022/01/29 00:53:28;;;;;;;22.30;7.90;;;7.00;99.90;;;;;;6275518;22;20016;-85
2022/01/29 00:56:06;;;;;;;22.27;7.50;;;7.10;99.90;;;;;;6275524;22;20427;-86
2022/01/29 00:58:50;;;;;;;19.38;6.60;;;7.10;99.90;;;;;;6273483;22;20080;-83
2022/01/29 01:01:16;;;;;;;23.13;7.28;;;7.10;99.90;;;;;;6275537;22;20024;-83
2022/01/29 01:03:42;;;;;;;21.27;8.60;;;7.10;99.90;;;;;;6275588;22;20016;-83
2022/01/29 01:07:41;;;;;;;16.65;6.63;;;7.10;99.90;;;;;;6275570;22;20026;-92
2022/01/29 01:09:45;;;;;;;23.42;9.55;;;7.20;99.90;;;;;;6206964;22;20443;-83
2022/01/29 01:12:13;;;;;;;24.83;9.35;;;7.20;99.90;;;;;;6278887;22;20026;-87
2022/01/29 01:14:46;;;;;;;18.52;7.38;;;7.20;99.90;;;;;;6278575;22;20086;-85
2022/01/29 01:17:15;;;;;;;20.20;7.90;;;7.20;99.90;;;;;;6274381;22;20047;-86
2022/01/29 01:19:40;;;;;;;17.60;7.13;;;7.30;99.90;;;;;;6278872;22;20016;-85
2022/01/29 01:22:06;;;;;;;24.85;7.45;;;7.20;99.90;;;;;;6279622;22;20018;-85
2022/01/29 01:24:32;;;;;;;20.25;7.13;;;7.30;99.90;;;;;;6278774;22;20050;-85
2022/01/29 01:26:58;;;;;;;17.83;7.95;;;7.30;99.90;;;;;;6278744;22;20020;-86
2022/01/29 01:29:31;;;;;;;16.25;7.40;;;7.20;99.90;;;;;;6278627;22;20070;-85
2022/01/29 01:31:57;;;;;;;20.42;8.18;;;7.30;99.90;;;;;;6278796;22;20375;-85
2022/01/29 01:34:24;;;;;;;25.20;8.60;;;7.30;99.90;;;;;;6278834;22;20050;-85
2022/01/29 01:36:57;;;;;;;21.98;7.60;;;7.30;99.90;;;;;;6278744;22;20019;-85
2022/01/29 01:39:28;;;;;;;28.05;8.70;;;7.30;99.90;;;;;;6278815;22;20038;-85
2022/01/29 01:42:02;;;;;;;30.85;8.25;;;7.30;99.90;;;;;;6278762;22;20019;-85
2022/01/29 01:44:45;;;;;;;22.15;8.93;;;7.40;99.90;;;;;;6279101;22;20458;-85
2022/01/29 01:47:11;;;;;;;18.05;6.57;;;7.40;99.90;;;;;;6278859;22;20019;-85
2022/01/29 01:49:38;;;;;;;24.27;7.60;;;7.40;99.90;;;;;;6278631;22;20030;-85
2022/01/29 01:52:06;;;;;;;21.33;8.55;;;7.40;99.90;;;;;;6278628;22;20028;-85
2022/01/29 01:54:33;;;;;;;21.52;7.75;;;7.40;99.90;;;;;;6278688;22;20007;-85
2022/01/29 01:57:02;;;;;;;22.30;8.73;;;7.40;99.90;;;;;;6278887;22;20019;-85
2022/01/29 01:59:28;;;;;;;19.35;8.90;;;7.50;99.90;;;;;;6280520;22;20082;-85
2022/01/29 02:01:54;;;;;;;27.92;9.55;;;7.40;99.90;;;;;;6280139;22;20019;-85
2022/01/29 02:04:19;;;;;;;17.70;7.85;;;7.50;99.90;;;;;;6278682;22;20335;-85
2022/01/29 02:06:46;;;;;;;26.95;9.07;;;7.50;99.90;;;;;;6280439;22;20043;-85
2022/01/29 02:09:20;;;;;;;23.55;9.48;;;7.40;99.90;;;;;;6278496;22;20022;-85
2022/01/29 02:11:51;;;;;;;33.25;10.00;;;7.50;99.90;;;;;;6278715;22;20512;-85
2022/01/29 02:14:18;;;;;;;23.20;8.68;;;7.50;99.90;;;;;;6278532;22;20012;-85
2022/01/29 02:16:44;;;;;;;24.33;8.60;;;7.50;99.90;;;;;;6278595;22;20019;-85
2022/01/29 02:19:10;;;;;;;24.70;9.27;;;7.50;99.90;;;;;;6277212;22;20008;-85
2022/01/29 02:21:41;;;;;;;21.10;8.88;;;7.40;99.90;;;;;;6276878;22;20428;-85
2022/01/29 02:24:07;;;;;;;29.13;8.25;;;7.40;99.90;;;;;;6276973;22;20015;-85
2022/01/29 02:26:33;;;;;;;25.38;8.32;;;7.50;99.90;;;;;;6276900;22;20031;-85
2022/01/29 02:28:59;;;;;;;30.13;11.45;;;7.50;99.90;;;;;;6276880;22;20095;-85
2022/01/29 02:31:24;;;;;;;26.15;9.25;;;7.50;99.90;;;;;;6276766;22;20342;-85
2022/01/29 02:33:50;;;;;;;26.65;8.00;;;7.50;99.90;;;;;;6276731;22;20343;-84
2022/01/29 02:36:16;;;;;;;20.88;8.50;;;7.50;99.90;;;;;;6276875;22;20426;-84
2022/01/29 02:38:41;;;;;;;29.52;9.82;;;7.50;99.90;;;;;;6276803;22;20378;-85
2022/01/29 02:41:07;;;;;;;22.63;9.45;;;7.50;99.90;;;;;;6276754;22;20016;-85
2022/01/29 02:48:42;;;;;;;31.05;9.38;;;7.50;99.90;;;;;;6276587;22;20043;-85
2022/01/29 02:51:07;;;;;;;22.08;8.40;;;7.50;99.90;;;;;;6276498;22;20074;-85
2022/01/29 02:53:33;;;;;;;28.50;10.32;;;7.60;99.90;;;;;;6276615;22;20443;-85
2022/01/29 02:55:59;;;;;;;26.85;9.55;;;7.60;99.90;;;;;;6276657;22;20016;-85
2022/01/29 02:58:25;;;;;;;29.75;10.57;;;7.60;99.90;;;;;;6276641;22;20034;-85
2022/01/29 03:00:53;;;;;;;20.77;8.55;;;7.60;99.90;;;;;;6276556;22;20020;-85
2022/01/29 03:03:18;;;;;;;26.08;9.80;;;7.60;99.90;;;;;;6276541;22;20133;-86
2022/01/29 03:05:44;;;;;;;22.75;8.85;;;7.60;99.90;;;;;;6276553;22;20066;-86
2022/01/29 03:08:10;;;;;;;18.73;9.93;;;7.60;99.90;;;;;;6276663;22;20070;-85
2022/01/29 03:10:36;;;;;;;24.20;9.98;;;7.60;99.90;;;;;;6276385;22;20016;-85
2022/01/29 03:13:02;;;;;;;23.00;11.00;;;7.70;99.90;;;;;;6276529;22;20090;-84
2022/01/29 03:15:27;;;;;;;28.30;10.85;;;7.70;99.90;;;;;;6276411;22;20026;-84
2022/01/29 03:17:56;;;;;;;29.65;9.70;;;7.70;99.90;;;;;;6275981;22;20054;-85
2022/01/29 03:20:22;;;;;;;31.15;11.27;;;7.70;99.90;;;;;;6276332;22;20135;-85
2022/01/29 03:22:48;;;;;;;26.02;9.75;;;7.70;99.90;;;;;;6276460;22;20450;-84
2022/01/29 03:25:16;;;;;;;25.45;10.18;;;7.70;99.90;;;;;;6276353;22;20012;-85
2022/01/29 03:27:42;;;;;;;23.77;10.88;;;7.70;99.90;;;;;;6276304;22;20106;-84
2022/01/29 03:30:09;;;;;;;25.73;9.82;;;7.80;99.90;;;;;;6275990;22;20020;-84
2022/01/29 03:32:34;;;;;;;24.85;11.13;;;7.80;99.90;;;;;;6276750;22;20058;-84
2022/01/29 03:35:00;;;;;;;22.33;10.35;;;7.80;99.90;;;;;;6276215;22;20019;-85
2022/01/29 03:37:26;;;;;;;30.88;11.32;;;7.80;99.90;;;;;;6277773;22;20011;-85
2022/01/29 03:39:58;;;;;;;26.38;11.02;;;7.80;99.90;;;;;;6276086;22;20023;-83
2022/01/29 03:42:24;;;;;;;26.17;11.02;;;7.80;99.90;;;;;;6276270;22;20086;-83
2022/01/29 03:44:50;;;;;;;32.75;12.43;;;7.80;99.90;;;;;;6276131;22;20316;-83
2022/01/29 03:54:51;;;;;;;24.48;10.32;;;7.80;99.90;;;;;;6092270;23;20370;-85
2022/01/29 03:57:49;;;;;;;25.42;11.82;;;7.80;99.90;;;;;;6147433;23;20028;-86
2022/01/29 04:00:29;;;;;;;25.23;10.88;;;7.80;99.90;;;;;;6119544;23;20017;-85
2022/01/29 04:02:55;;;;;;;28.85;11.85;;;7.90;99.90;;;;;;6269596;22;20098;-85
2022/01/29 04:05:21;;;;;;;32.55;12.98;;;7.80;99.90;;;;;;6275971;22;20014;-86
2022/01/29 04:07:46;;;;;;;25.25;12.30;;;7.80;99.90;;;;;;6275898;22;20020;-86
2022/01/29 04:10:12;;;;;;;27.65;13.25;;;7.80;99.90;;;;;;6275644;22;20461;-86
2022/01/29 04:12:50;;;;;;;28.80;13.65;;;7.90;99.90;;;;;;6275742;22;20012;-86
2022/01/29 04:15:16;;;;;;;27.20;12.10;;;7.80;99.90;;;;;;6275864;22;20024;-85
2022/01/29 04:17:42;;;;;;;26.95;11.98;;;7.90;99.90;;;;;;6275307;22;20335;-85
2022/01/29 04:20:08;;;;;;;26.10;12.13;;;7.90;99.90;;;;;;6275720;22;20439;-84
2022/01/29 04:22:34;;;;;;;24.73;12.43;;;7.90;99.90;;;;;;6275796;22;20043;-84
2022/01/29 04:25:00;;;;;;;28.40;12.05;;;7.90;99.90;;;;;;6275792;22;20320;-85
2022/01/29 04:27:36;;;;;;;26.25;11.20;;;7.90;99.90;;;;;;6277619;22;20016;-85
2022/01/29 04:30:10;;;;;;;30.08;12.93;;;7.90;99.90;;;;;;6275863;22;20050;-85
2022/01/29 04:43:52;;;;;;;29.60;12.27;;;8.00;99.90;;;;;;6153262;23;20052;-86
2022/01/29 04:46:48;;;;;;;28.45;13.25;;;7.90;99.90;;;;;;6128757;23;20025;-85
2022/01/29 04:49:29;;;;;;;27.88;13.48;;;7.90;99.90;;;;;;6153665;23;20055;-85
2022/01/29 04:51:55;;;;;;;31.15;12.80;;;8.00;99.90;;;;;;6129189;23;20056;-84
2022/01/29 04:54:20;;;;;;;29.70;13.18;;;8.00;99.90;;;;;;6154294;23;20084;-84
2022/01/29 04:56:46;;;;;;;28.50;13.95;;;8.00;99.90;;;;;;6189413;22;20085;-84
2022/01/29 04:59:11;;;;;;;28.48;13.10;;;8.00;99.90;;;;;;6275530;22;20501;-83
2022/01/29 05:01:39;;;;;;;33.97;14.40;;;8.00;99.90;;;;;;6276003;22;20089;-83
2022/01/29 05:04:04;;;;;;;26.10;13.15;;;8.10;99.90;;;;;;6275453;22;20020;-84
2022/01/29 05:06:30;;;;;;;29.83;12.80;;;8.00;99.90;;;;;;6275488;22;20102;-84
2022/01/29 05:08:55;;;;;;;29.50;14.27;;;8.10;99.90;;;;;;6275453;22;20443;-84
2022/01/29 05:11:21;;;;;;;31.58;13.55;;;8.10;99.90;;;;;;6275278;22;20447;-83
2022/01/29 05:13:47;;;;;;;24.23;13.15;;;8.10;99.90;;;;;;6275418;22;20019;-83
2022/01/29 05:27:03;;;;;;;29.70;13.10;;;8.00;99.90;;;;;;6275329;22;20023;-83
2022/01/29 05:29:32;;;;;;;28.75;12.85;;;8.00;99.90;;;;;;6275484;22;20011;-82
2022/01/29 05:31:59;;;;;;;29.05;13.55;;;8.10;99.90;;;;;;6275376;22;20085;-82
2022/01/29 05:34:24;;;;;;;31.63;14.48;;;8.00;99.90;;;;;;6275349;22;20026;-82
2022/01/29 05:36:50;;;;;;;26.80;14.27;;;8.00;99.90;;;;;;6275373;22;20343;-82
2022/01/29 05:39:20;;;;;;;28.88;13.82;;;8.00;99.90;;;;;;6275269;22;20115;-82
2022/01/29 05:41:46;;;;;;;31.75;13.07;;;8.00;99.90;;;;;;6276214;22;20015;-83
2022/01/29 05:44:14;;;;;;;29.10;13.57;;;8.00;99.90;;;;;;6275414;22;20019;-83
2022/01/29 05:46:40;;;;;;;27.92;13.55;;;8.10;99.90;;;;;;6275231;22;20034;-83
2022/01/29 05:49:16;;;;;;;24.77;13.52;;;8.10;99.90;;;;;;6275224;22;20072;-83
2022/01/29 05:51:42;;;;;;;27.67;12.57;;;8.10;99.90;;;;;;6275115;22;20022;-83
2022/01/29 05:54:07;;;;;;;25.88;11.73;;;8.10;99.90;;;;;;6275985;22;20016;-83
2022/01/29 05:56:33;;;;;;;26.38;12.38;;;8.10;99.90;;;;;;6277157;22;20011;-83
2022/01/29 05:58:59;;;;;;;28.98;13.07;;;8.10;99.90;;;;;;6277162;22;20089;-83
2022/01/29 06:01:24;;;;;;;24.60;12.23;;;8.10;99.90;;;;;;6277234;22;20540;-83
2022/01/29 06:03:50;;;;;;;26.92;12.43;;;8.10;99.90;;;;;;6277177;22;20015;-83
2022/01/29 06:06:16;;;;;;;23.15;11.98;;;8.10;99.90;;;;;;6278995;22;20450;-83
2022/01/29 06:08:41;;;;;;;28.55;12.93;;;8.10;99.90;;;;;;6279020;22;20323;-83
2022/01/29 06:11:08;;;;;;;25.88;12.20;;;8.10;99.90;;;;;;6276917;22;20019;-83
2022/01/29 06:13:33;;;;;;;28.05;12.38;;;8.10;99.90;;;;;;6277062;22;20061;-83
2022/01/29 06:16:01;;;;;;;27.60;12.82;;;8.10;99.90;;;;;;6277009;22;20024;-83
2022/01/29 06:18:27;;;;;;;27.20;13.25;;;8.10;99.90;;;;;;6277005;22;20026;-83
2022/01/29 06:20:56;;;;;;;25.33;12.07;;;8.10;99.90;;;;;;6276969;22;20357;-83
2022/01/29 06:23:29;;;;;;;26.33;12.05;;;8.10;99.90;;;;;;6276895;22;20065;-83
2022/01/29 06:25:55;;;;;;;24.95;11.93;;;8.10;99.90;;;;;;6277022;22;20035;-82
2022/01/29 06:28:21;;;;;;;25.55;13.00;;;8.10;99.90;;;;;;6276983;22;20447;-84
2022/01/29 06:30:46;;;;;;;23.23;12.20;;;8.10;99.90;;;;;;6276797;22;20012;-84
2022/01/29 06:33:13;;;;;;;27.48;12.07;;;8.20;99.90;;;;;;6278783;22;20012;-83
2022/01/29 06:35:41;;;;;;;24.92;11.75;;;8.20;99.90;;;;;;6276865;22;20016;-83
2022/01/29 06:38:11;;;;;;;27.30;13.45;;;8.20;99.90;;;;;;6276899;22;20012;-83
2022/01/29 06:40:38;;;;;;;27.02;12.73;;;8.20;99.90;;;;;;6276791;22;20016;-83
2022/01/29 06:43:04;;;;;;;24.25;12.18;;;8.10;99.90;;;;;;6276856;22;20012;-84
2022/01/29 06:45:34;;;;;;;29.33;12.00;;;8.10;99.90;;;;;;6276788;22;20343;-84
2022/01/29 06:48:00;;;;;;;25.05;12.05;;;8.10;99.90;;;;;;6276719;22;20018;-84
2022/01/29 06:50:26;;;;;;;23.90;11.50;;;8.10;99.90;;;;;;6276635;22;20461;-83
2022/01/29 06:52:55;;;;;;;28.80;11.52;;;8.20;99.90;;;;;;6276636;22;20016;-83
2022/01/29 06:55:21;;;;;;;19.70;10.38;;;8.20;99.90;;;;;;6276723;22;20023;-83
2022/01/29 06:57:47;;;;;;;21.42;9.98;;;8.20;99.90;;;;;;6276608;22;20008;-83
2022/01/29 07:00:14;;;;;;;21.27;10.63;;;8.20;99.90;;;;;;6276655;22;20439;-83
2022/01/29 07:02:39;;;;;;;23.90;10.30;;;8.20;99.90;;;;;;6276622;22;20050;-83
2022/01/29 07:05:07;;;;;;;22.60;11.73;;;8.20;99.90;;;;;;6276290;22;20335;-83
2022/01/29 07:07:33;;;;;;;25.00;10.32;;;8.20;99.90;;;;;;6276492;22;20090;-83
2022/01/29 07:09:58;;;;;;;20.55;9.77;;;8.30;99.90;;;;;;6276426;22;20411;-84
2022/01/29 07:12:25;;;;;;;22.02;10.38;;;8.20;99.90;;;;;;6276469;22;20026;-84
2022/01/29 07:14:50;;;;;;;24.00;10.52;;;8.20;99.90;;;;;;6276508;22;20022;-84
2022/01/29 07:17:18;;;;;;;25.30;11.15;;;8.30;99.90;;;;;;6276203;22;20024;-83
2022/01/29 07:19:45;;;;;;;20.33;10.02;;;8.30;99.90;;;;;;6276437;22;20458;-83
2022/01/29 07:22:11;;;;;;;22.73;9.68;;;8.30;99.90;;;;;;6276396;22;20018;-83
2022/01/29 07:24:38;;;;;;;21.50;9.55;;;8.30;99.90;;;;;;6276365;22;20015;-83
2022/01/29 07:27:04;;;;;;;23.58;10.55;;;8.30;99.90;;;;;;6276335;22;20016;-83
2022/01/29 07:29:31;;;;;;;26.98;9.63;;;8.30;99.90;;;;;;6276299;22;20016;-83
2022/01/29 07:31:57;;;;;;;22.95;10.15;;;8.20;99.90;;;;;;6276221;22;20015;-83
2022/01/29 07:34:24;;;;;;;21.67;9.40;;;8.30;99.90;;;;;;6277582;22;20021;-83
2022/01/29 07:36:51;;;;;;;25.40;8.93;;;8.30;99.90;;;;;;6275951;22;20015;-83
2022/01/29 07:39:16;;;;;;;20.98;9.35;;;8.30;99.90;;;;;;6275695;22;20047;-83
2022/01/29 07:41:42;;;;;;;22.27;8.98;;;8.30;99.90;;;;;;6277341;22;20027;-83
2022/01/29 07:44:08;;;;;;;18.30;8.57;;;8.30;99.90;;;;;;6275110;22;20023;-83
2022/01/29 07:46:34;;;;;;;27.00;9.38;;;8.30;99.90;;;;;;6274147;22;20510;-83
2022/01/29 07:48:59;;;;;;;22.25;9.18;;;8.30;99.90;;;;;;6275644;22;20012;-83
2022/01/29 07:51:25;;;;;;;19.70;8.30;;;8.30;99.90;;;;;;6275844;22;20069;-83
2022/01/29 07:53:51;;;;;;;20.52;7.97;;;8.30;99.90;;;;;;6275969;22;20020;-83
2022/01/29 07:56:17;;;;;;;18.23;7.40;;;8.30;99.90;;;;;;6275905;22;20030;-83
2022/01/29 07:58:42;;;;;;;19.95;9.13;;;8.30;99.90;;;;;;6276014;22;20027;-83
2022/01/29 08:01:08;;;;;;;18.92;7.72;;;8.30;99.90;;;;;;6275827;22;20094;-83
2022/01/29 08:03:33;;;;;;;21.48;8.40;;;8.30;99.90;;;;;;6275829;22;20011;-83
2022/01/29 08:05:59;;;;;;;22.85;8.57;;;8.30;99.90;;;;;;6275896;22;20020;-83
2022/01/29 08:08:25;;;;;;;20.58;7.78;;;8.30;99.90;;;;;;6275884;22;20018;-83
2022/01/29 08:10:52;;;;;;;21.02;8.90;;;8.30;99.90;;;;;;6275684;22;20076;-83
2022/01/29 08:13:18;;;;;;;17.75;6.82;;;8.30;99.90;;;;;;6275684;22;20015;-83
2022/01/29 08:15:44;;;;;;;20.98;8.77;;;8.30;99.90;;;;;;6275618;22;20042;-82
2022/01/29 08:18:10;;;;;;;17.17;7.13;;;8.30;99.90;;;;;;6274990;22;20142;-82
2022/01/29 08:20:35;;;;;;;16.42;7.15;;;8.30;99.90;;;;;;6275724;22;20125;-82
2022/01/29 08:23:07;;;;;;;15.07;6.50;;;8.30;99.90;;;;;;6275674;22;20043;-82
2022/01/29 08:25:33;;;;;;;20.05;7.28;;;8.30;99.90;;;;;;6275694;22;20312;-82
2022/01/29 08:27:58;;;;;;;18.55;7.88;;;8.40;99.90;;;;;;6275543;22;20445;-83
2022/01/29 08:30:24;;;;;;;25.58;9.40;;;8.40;99.90;;;;;;6275551;22;20068;-82
2022/01/29 08:32:50;;;;;;;19.17;6.22;;;8.40;99.90;;;;;;6277420;22;20008;-85
2022/01/29 08:35:15;;;;;;;16.88;5.75;;;8.40;99.90;;;;;;6275435;22;20019;-83
2022/01/29 08:37:42;;;;;;;23.45;7.82;;;8.40;99.90;;;;;;6277359;22;20015;-82
2022/01/29 08:40:09;;;;;;;20.02;6.70;;;8.50;99.90;;;;;;6277439;22;20012;-83
2022/01/29 08:42:35;;;;;;;18.95;6.10;;;8.50;99.90;;;;;;6277048;22;20552;-83
2022/01/29 08:45:06;;;;;;;14.77;6.35;;;8.50;99.90;;;;;;6276024;22;20019;-86
2022/01/29 08:47:31;;;;;;;13.82;5.10;;;8.60;99.90;;;;;;6276928;22;20011;-83
2022/01/29 08:49:57;;;;;;;21.90;6.32;;;8.60;99.90;;;;;;6274333;22;20092;-82
2022/01/29 08:52:23;;;;;;;12.43;5.85;;;8.60;99.90;;;;;;6275200;22;20043;-82
2022/01/29 08:54:54;;;;;;;14.40;6.45;;;8.70;99.90;;;;;;6275629;22;20015;-81
2022/01/29 08:57:20;;;;;;;18.75;5.82;;;8.70;99.90;;;;;;6275150;22;20070;-83
2022/01/29 08:59:45;;;;;;;13.52;6.38;;;8.70;99.90;;;;;;6275194;22;20447;-82
2022/01/29 09:02:11;;;;;;;16.88;5.90;;;8.70;99.90;;;;;;6275255;22;20016;-82
2022/01/29 09:04:37;;;;;;;15.65;5.57;;;8.70;99.90;;;;;;6275075;22;20016;-82
2022/01/29 09:07:03;;;;;;;11.57;5.88;;;8.70;99.90;;;;;;6275098;22;20530;-82
2022/01/29 09:09:28;;;;;;;11.40;4.40;;;8.70;99.90;;;;;;6275104;22;20016;-81
2022/01/29 09:11:54;;;;;;;14.07;5.22;;;8.70;99.90;;;;;;6276407;22;20023;-82
2022/01/29 09:14:20;;;;;;;17.70;5.75;;;8.70;99.90;;;;;;6275150;22;20054;-80
2022/01/29 09:16:47;;;;;;;15.20;5.57;;;8.70;99.90;;;;;;6276621;22;20024;-82
2022/01/29 09:19:12;;;;;;;10.68;5.53;;;8.70;99.90;;;;;;6274901;22;20050;-81
2022/01/29 09:21:38;;;;;;;12.20;5.90;;;8.70;99.90;;;;;;6275112;22;20047;-79
2022/01/29 09:24:05;;;;;;;12.20;5.88;;;8.70;99.90;;;;;;6275038;22;20069;-83
2022/01/29 09:26:30;;;;;;;15.43;5.10;;;8.80;99.90;;;;;;6274969;22;20388;-82
2022/01/29 09:28:56;;;;;;;13.80;5.20;;;8.80;99.90;;;;;;6277221;22;20011;-80
2022/01/29 09:31:22;;;;;;;11.57;4.95;;;8.80;99.90;;;;;;6277011;22;20460;-81
2022/01/29 09:33:48;;;;;;;14.93;4.43;;;8.80;99.90;;;;;;6277094;22;20011;-81
2022/01/29 09:36:14;;;;;;;13.65;5.07;;;8.80;99.90;;;;;;6277111;22;20016;-81
2022/01/29 09:38:40;;;;;;;15.48;5.72;;;8.80;99.90;;;;;;6275727;22;20014;-84
2022/01/29 09:41:05;;;;;;;16.08;7.45;;;8.90;99.90;;;;;;6276909;22;20073;-81
2022/01/29 09:43:33;;;;;;;16.85;5.13;;;8.90;99.90;;;;;;6276915;22;20046;-81
2022/01/29 09:45:59;;;;;;;11.85;4.18;;;8.90;99.90;;;;;;6278272;22;20320;-82
2022/01/29 09:48:28;;;;;;;11.32;4.10;;;8.90;99.90;;;;;;6278435;22;20045;-81
2022/01/29 09:50:57;;;;;;;11.32;4.07;;;9.00;99.90;;;;;;6276409;22;20030;-81
2022/01/29 09:53:23;;;;;;;15.75;4.13;;;9.00;99.90;;;;;;6276784;22;20338;-80
2022/01/29 09:55:49;;;;;;;10.68;3.40;;;9.00;99.90;;;;;;6276447;22;20042;-82
2022/01/29 09:58:15;;;;;;;9.68;3.42;;;9.00;99.90;;;;;;6276763;22;20012;-82
2022/01/29 10:00:41;;;;;;;9.82;3.75;;;9.00;99.90;;;;;;6277147;22;20012;-82
2022/01/29 10:03:09;;;;;;;11.23;3.55;;;9.00;99.90;;;;;;6278610;22;20012;-83
2022/01/29 10:05:45;;;;;;;15.98;4.00;;;9.10;99.90;;;;;;6276823;22;20057;-83
2022/01/29 10:08:12;;;;;;;11.52;3.00;;;9.10;99.90;;;;;;6276211;22;20016;-83
2022/01/29 10:11:02;;;;;;;11.93;3.30;;;9.10;99.90;;;;;;6276081;22;20018;-83
2022/01/29 10:13:36;;;;;;;14.63;3.38;;;9.10;99.90;;;;;;6276332;22;20015;-84
2022/01/29 10:16:08;;;;;;;11.23;3.38;;;9.10;99.90;;;;;;6276885;22;20022;-83
2022/01/29 10:18:37;;;;;;;10.68;3.03;;;9.20;99.90;;;;;;6276581;22;20082;-82
2022/01/29 10:21:21;;;;;;;13.38;3.45;;;9.20;99.90;;;;;;6276262;22;20054;-82
2022/01/29 10:23:47;;;;;;;11.10;4.13;;;9.30;99.90;;;;;;6276504;22;20019;-82
2022/01/29 10:26:34;;;;;;;13.27;3.90;;;9.20;99.90;;;;;;6276132;22;20043;-81
2022/01/29 10:29:01;;;;;;;13.60;3.00;;;9.20;99.90;;;;;;6276473;22;20341;-82
2022/01/29 10:31:44;;;;;;;11.68;2.80;;;9.30;99.90;;;;;;6276111;22;20089;-81
2022/01/29 10:34:26;;;;;;;7.88;2.28;;;9.30;99.90;;;;;;6278129;22;20059;-83
2022/01/29 10:37:12;;;;;;;12.15;2.92;;;9.30;99.90;;;;;;6278269;22;20004;-82
2022/01/29 10:39:38;;;;;;;12.82;2.95;;;9.30;99.90;;;;;;6276282;22;20316;-83
2022/01/29 10:42:19;;;;;;;9.93;2.25;;;9.30;99.90;;;;;;6277613;22;20019;-83
2022/01/29 10:44:48;;;;;;;13.73;2.78;;;9.30;99.90;;;;;;6276058;22;20018;-83
2022/01/29 10:47:14;;;;;;;14.57;3.15;;;9.30;99.90;;;;;;6276425;22;20023;-82
2022/01/29 10:49:53;;;;;;;10.55;2.88;;;9.30;99.90;;;;;;6275801;22;20019;-82
2022/01/29 10:52:29;;;;;;;13.32;2.65;;;9.30;99.90;;;;;;6276442;22;20019;-82
2022/01/29 10:54:59;;;;;;;10.63;2.28;;;9.30;99.90;;;;;;6276287;22;20017;-82
2022/01/29 10:57:49;;;;;;;5.97;2.20;;;9.40;99.90;;;;;;6275803;22;20018;-82
2022/01/29 11:00:25;;;;;;;7.57;2.28;;;9.40;99.90;;;;;;6277968;22;20008;-81
2022/01/29 11:02:53;;;;;;;11.07;3.13;;;9.40;99.90;;;;;;6275877;22;20018;-82
2022/01/29 11:05:23;;;;;;;8.13;2.58;;;9.40;99.90;;;;;;6276056;22;20019;-82
2022/01/29 11:07:52;;;;;;;10.00;2.25;;;9.40;99.90;;;;;;6276147;22;20020;-82
2022/01/29 11:10:19;;;;;;;12.25;2.50;;;9.50;99.90;;;;;;6275387;22;20015;-82
2022/01/29 11:12:46;;;;;;;12.13;2.95;;;9.50;99.90;;;;;;6275936;22;20027;-82
2022/01/29 11:15:15;;;;;;;10.02;2.47;;;9.50;99.90;;;;;;6275579;22;20008;-83
2022/01/29 11:17:43;;;;;;;8.45;2.63;;;9.50;99.90;;;;;;6275625;22;20022;-83
2022/01/29 11:20:13;;;;;;;11.45;2.25;;;9.50;99.90;;;;;;6274879;22;20031;-83
2022/01/29 11:22:41;;;;;;;8.23;2.17;;;9.60;99.90;;;;;;6274451;22;20462;-83
2022/01/29 11:25:12;;;;;;;7.47;2.20;;;9.50;99.90;;;;;;6275898;22;20032;-83
2022/01/29 11:27:38;;;;;;;16.05;3.33;;;9.50;99.90;;;;;;6276084;22;20088;-82
2022/01/29 11:30:11;;;;;;;9.10;2.40;;;9.60;99.90;;;;;;6275952;22;20011;-87
2022/01/29 11:32:45;;;;;;;11.50;2.65;;;9.50;99.90;;;;;;6275960;22;20027;-84
2022/01/29 11:35:19;;;;;;;9.18;2.08;;;9.60;99.90;;;;;;6275992;22;20022;-83
2022/01/29 11:37:53;;;;;;;10.77;2.67;;;9.70;99.90;;;;;;6275824;22;20015;-82
2022/01/29 11:40:22;;;;;;;9.10;2.30;;;9.60;99.90;;;;;;6276096;22;20099;-83
2022/01/29 11:43:23;;;;;;;8.60;3.10;;;9.70;99.90;;;;;;6275685;22;20024;-83
2022/01/29 11:46:08;;;;;;;9.40;2.17;;;9.80;99.90;;;;;;6275832;22;20007;-82
2022/01/29 11:48:55;;;;;;;13.07;2.50;;;9.80;99.90;;;;;;6275858;22;20027;-82
2022/01/29 11:51:45;;;;;;;11.60;2.65;;;9.80;99.90;;;;;;6275593;22;20016;-82
2022/01/29 11:54:24;;;;;;;7.40;2.10;;;9.90;99.90;;;;;;6275688;22;20342;-81
2022/01/29 11:57:14;;;;;;;8.10;2.15;;;9.90;99.90;;;;;;6275615;22;20399;-83
2022/01/29 11:59:42;;;;;;;8.60;1.88;;;10.00;99.90;;;;;;6275552;22;20340;-83
2022/01/29 12:02:14;;;;;;;20.42;3.10;;;10.00;99.90;;;;;;6275689;22;20024;-83
2022/01/29 12:04:49;;;;;;;7.03;2.45;;;10.00;99.90;;;;;;6275605;22;20027;-83
2022/01/29 12:07:26;;;;;;;9.73;2.22;;;10.00;99.90;;;;;;6275613;22;20023;-83
2022/01/29 12:10:07;;;;;;;7.65;2.30;;;10.00;99.90;;;;;;6275563;22;20015;-83
2022/01/29 12:12:35;;;;;;;8.40;2.47;;;10.10;99.90;;;;;;6277427;22;20019;-83
2022/01/29 12:15:09;;;;;;;7.30;1.83;;;10.20;99.90;;;;;;6275605;22;20015;-83
2022/01/29 12:17:49;;;;;;;10.93;2.72;;;10.20;99.90;;;;;;6275586;22;20097;-83
2022/01/29 12:20:20;;;;;;;11.30;1.92;;;10.20;99.90;;;;;;6275737;22;20024;-84
2022/01/29 12:22:48;;;;;;;8.85;1.88;;;10.30;99.90;;;;;;6275269;22;20022;-84
2022/01/29 12:25:18;;;;;;;14.57;3.17;;;10.40;99.90;;;;;;6275634;22;20055;-84
2022/01/29 12:27:50;;;;;;;10.65;3.00;;;10.40;99.90;;;;;;6275685;22;20008;-83
2022/01/29 12:30:32;;;;;;;11.60;2.33;;;10.50;99.90;;;;;;6275371;22;20016;-83
2022/01/29 12:33:04;;;;;;;9.40;2.40;;;10.50;99.90;;;;;;6275169;22;20020;-83
2022/01/29 12:35:35;;;;;;;9.35;2.30;;;10.50;99.90;;;;;;6275398;22;20019;-83
2022/01/29 12:38:03;;;;;;;12.70;2.42;;;10.40;99.90;;;;;;6277093;22;20011;-83
2022/01/29 12:40:35;;;;;;;9.73;2.35;;;10.40;99.90;;;;;;6275236;22;20016;-83
2022/01/29 12:43:10;;;;;;;8.35;1.95;;;10.30;99.90;;;;;;6275349;22;20018;-82
2022/01/29 12:45:38;;;;;;;10.85;2.55;;;10.30;99.90;;;;;;6274020;22;20054;-83
2022/01/29 12:48:11;;;;;;;10.60;2.50;;;10.30;99.90;;;;;;6275185;22;20042;-83
2022/01/29 12:50:41;;;;;;;15.18;2.20;;;10.30;99.90;;;;;;6276256;22;20059;-83
2022/01/29 12:53:11;;;;;;;8.95;2.38;;;10.30;99.90;;;;;;6275669;22;20039;-83
2022/01/29 12:55:37;;;;;;;9.65;2.15;;;10.30;99.90;;;;;;6274780;22;20016;-84
2022/01/29 12:58:03;;;;;;;11.52;3.03;;;10.30;99.90;;;;;;6275110;22;20016;-84
2022/01/29 13:00:30;;;;;;;7.53;1.90;;;10.30;99.90;;;;;;6274973;22;20019;-83
2022/01/29 13:03:13;;;;;;;7.70;1.92;;;10.30;99.90;;;;;;6274588;22;20016;-83
2022/01/29 13:05:43;;;;;;;7.63;1.98;;;10.40;99.90;;;;;;6275056;22;20432;-83
2022/01/29 13:08:11;;;;;;;12.10;3.03;;;10.40;99.90;;;;;;6274958;22;20022;-83
2022/01/29 13:10:37;;;;;;;10.32;1.85;;;10.50;99.90;;;;;;6276551;22;20019;-84
2022/01/29 13:13:03;;;;;;;7.68;1.88;;;10.50;99.90;;;;;;6274913;22;20020;-83
2022/01/29 13:15:38;;;;;;;11.27;2.17;;;10.50;99.90;;;;;;6274536;22;20018;-83
2022/01/29 13:18:06;;;;;;;11.27;2.05;;;10.60;99.90;;;;;;6275039;22;20015;-83
2022/01/29 13:20:32;;;;;;;9.88;2.03;;;10.70;99.90;;;;;;6274402;22;20032;-83
2022/01/29 13:22:57;;;;;;;10.18;1.98;;;10.70;99.90;;;;;;6274788;22;20451;-84
2022/01/29 13:25:29;;;;;;;7.75;1.77;;;10.70;99.90;;;;;;6274489;22;20015;-82
2022/01/29 13:28:06;;;;;;;9.20;1.77;;;10.80;99.90;;;;;;6275026;22;20073;-83
2022/01/29 13:30:44;;;;;;;12.77;2.30;;;10.80;99.90;;;;;;6273717;22;20427;-85
2022/01/29 13:33:18;;;;;;;11.98;2.00;;;10.80;99.90;;;;;;6273783;22;20012;-87
2022/01/29 13:35:57;;;;;;;8.57;1.63;;;10.70;99.90;;;;;;6273302;22;20020;-85